createdAt,value
2018-09-17T00:01:54.459Z,4.57
2018-09-17T00:04:22.071Z,5.17
2018-09-17T00:06:49.798Z,5.33
2018-09-17T00:09:17.984Z,6.83
2018-09-17T00:11:45.538Z,5.03
2018-09-17T00:14:13.035Z,5.10
2018-09-17T00:16:40.500Z,5.20
2018-09-17T00:19:07.980Z,4.47
2018-09-17T00:21:35.428Z,5.50
2018-09-17T00:24:03.138Z,5.03
2018-09-17T00:26:30.568Z,5.30
2018-09-17T00:28:58.030Z,4.47
2018-09-17T00:31:25.677Z,4.53
2018-09-17T00:33:53.131Z,4.90
2018-09-17T00:36:20.557Z,5.50
2018-09-17T00:38:48.013Z,4.87
2018-09-17T00:41:15.466Z,5.00
2018-09-17T00:43:42.968Z,5.20
2018-09-17T00:46:11.264Z,5.17
2018-09-17T00:48:38.721Z,5.33
2018-09-17T00:51:06.212Z,5.20
2018-09-17T00:53:33.848Z,5.10
2018-09-17T00:56:01.574Z,5.90
2018-09-17T00:58:29.073Z,5.13
2018-09-17T01:00:56.524Z,4.63
2018-09-17T01:03:23.996Z,5.13
2018-09-17T01:05:51.425Z,4.83
2018-09-17T01:08:18.878Z,4.80
2018-09-17T01:10:46.521Z,5.10
2018-09-17T01:13:14.179Z,5.30
2018-09-17T01:15:41.696Z,6.43
2018-09-17T01:18:09.150Z,5.17
2018-09-17T01:20:36.600Z,5.00
2018-09-17T01:23:04.089Z,5.07
2018-09-17T01:25:31.529Z,5.47
2018-09-17T01:27:58.983Z,5.27
2018-09-17T01:30:26.466Z,6.80
2018-09-17T01:32:53.922Z,5.70
2018-09-17T01:35:21.390Z,5.43
2018-09-17T01:37:48.814Z,5.17
2018-09-17T01:40:16.295Z,5.70
2018-09-17T01:42:43.737Z,5.37
2018-09-17T01:45:11.228Z,5.57
2018-09-17T01:47:38.664Z,5.60
2018-09-17T01:50:06.355Z,5.47
2018-09-17T01:52:33.778Z,5.90
2018-09-17T01:55:01.256Z,5.47
2018-09-17T01:57:28.757Z,5.53
2018-09-17T01:59:56.198Z,5.30
2018-09-17T02:02:23.634Z,5.63
2018-09-17T02:04:51.096Z,6.53
2018-09-17T02:07:18.549Z,6.27
2018-09-17T02:09:46.047Z,5.10
2018-09-17T02:12:13.506Z,5.67
2018-09-17T02:14:41.647Z,6.10
2018-09-17T02:17:09.090Z,5.30
2018-09-17T02:19:37.179Z,5.33
2018-09-17T02:22:04.714Z,5.73
2018-09-17T02:24:32.237Z,6.10
2018-09-17T02:26:59.725Z,5.87
2018-09-17T02:29:27.220Z,6.50
2018-09-17T02:31:54.738Z,6.37
2018-09-17T02:34:22.225Z,6.13
2018-09-17T02:36:49.855Z,5.60
2018-09-17T02:39:17.332Z,5.70
2018-09-17T02:41:44.785Z,5.97
2018-09-17T02:44:12.244Z,5.20
2018-09-17T02:46:39.680Z,5.90
2018-09-17T02:49:07.169Z,5.60
2018-09-17T02:51:34.596Z,6.70
2018-09-17T02:54:02.031Z,6.80
2018-09-17T02:56:29.506Z,6.80
2018-09-17T02:58:57.197Z,6.40
2018-09-17T03:01:24.689Z,6.50
2018-09-17T03:03:52.130Z,5.97
2018-09-17T03:06:19.589Z,7.97
2018-09-17T03:08:47.050Z,6.70
2018-09-17T03:11:14.499Z,6.60
2018-09-17T03:13:41.932Z,6.77
2018-09-17T03:16:09.473Z,7.50
2018-09-17T03:18:48.384Z,5.90
2018-09-17T03:21:15.828Z,6.07
2018-09-17T03:23:43.308Z,6.60
2018-09-17T03:26:10.771Z,5.63
2018-09-17T03:28:38.258Z,6.30
2018-09-17T03:31:05.739Z,6.23
2018-09-17T03:33:33.176Z,6.10
2018-09-17T03:36:00.630Z,6.70
2018-09-17T03:38:39.505Z,6.00
2018-09-17T03:41:08.061Z,6.80
2018-09-17T03:43:36.482Z,7.10
2018-09-17T03:46:04.063Z,6.93
2018-09-17T03:48:32.517Z,6.77
2018-09-17T03:51:00.623Z,6.73
2018-09-17T03:53:28.353Z,6.43
2018-09-17T03:55:55.835Z,6.23
2018-09-17T03:58:23.251Z,6.50
2018-09-17T04:00:50.805Z,6.93
2018-09-17T04:03:18.226Z,8.10
2018-09-17T04:05:45.740Z,6.43
2018-09-17T04:08:13.173Z,6.67
2018-09-17T04:10:40.792Z,6.30
2018-09-17T04:13:08.620Z,7.27
2018-09-17T04:15:36.078Z,6.33
2018-09-17T04:18:03.580Z,7.20
2018-09-17T04:20:31.094Z,7.10
2018-09-17T04:22:58.536Z,6.87
2018-09-17T04:25:27.952Z,6.80
2018-09-17T04:27:55.405Z,6.73
2018-09-17T04:30:23.076Z,7.03
2018-09-17T04:32:51.222Z,6.80
2018-09-17T04:35:18.677Z,6.83
2018-09-17T04:37:46.130Z,7.40
2018-09-17T04:40:13.558Z,8.00
2018-09-17T04:42:41.022Z,6.77
2018-09-17T04:45:08.494Z,7.00
2018-09-17T04:47:41.430Z,6.93
2018-09-17T04:50:08.884Z,6.93
2018-09-17T04:52:36.384Z,6.70
2018-09-17T04:55:03.986Z,7.20
2018-09-17T04:57:31.666Z,7.33
2018-09-17T04:59:59.237Z,7.90
2018-09-17T05:02:26.707Z,7.20
2018-09-17T05:04:54.137Z,7.80
2018-09-17T05:07:21.691Z,7.93
2018-09-17T05:09:49.181Z,7.37
2018-09-17T05:12:16.920Z,7.63
2018-09-17T05:14:44.361Z,9.80
2018-09-17T05:17:11.828Z,7.63
2018-09-17T05:19:39.373Z,7.60
2018-09-17T05:22:06.918Z,7.83
2018-09-17T05:24:34.394Z,7.93
2018-09-17T05:27:01.954Z,7.60
2018-09-17T05:29:29.401Z,7.43
2018-09-17T05:31:56.989Z,8.70
2018-09-17T05:34:24.428Z,8.00
2018-09-17T05:36:51.977Z,7.50
2018-09-17T05:39:19.540Z,8.00
2018-09-17T05:41:47.098Z,7.90
2018-09-17T05:44:14.680Z,7.50
2018-09-17T05:46:42.137Z,8.40
2018-09-17T05:49:09.569Z,7.80
2018-09-17T05:51:37.130Z,7.77
2018-09-17T05:54:05.222Z,8.10
2018-09-17T05:56:32.687Z,7.33
2018-09-17T05:59:00.440Z,7.37
2018-09-17T06:01:27.901Z,7.70
2018-09-17T06:03:55.769Z,7.23
2018-09-17T06:06:23.203Z,7.17
2018-09-17T06:08:50.669Z,7.30
2018-09-17T06:11:18.279Z,7.33
2018-09-17T06:13:45.704Z,7.10
2018-09-17T06:16:13.129Z,7.70
2018-09-17T06:18:40.642Z,8.07
2018-09-17T06:21:09.517Z,7.30
2018-09-17T06:23:37.082Z,8.47
2018-09-17T06:26:04.581Z,7.70
2018-09-17T06:28:32.700Z,7.90
2018-09-17T06:31:00.180Z,7.23
2018-09-17T06:33:27.681Z,6.77
2018-09-17T06:35:55.155Z,7.50
2018-09-17T06:38:22.596Z,7.00
2018-09-17T06:40:50.058Z,6.70
2018-09-17T06:43:17.490Z,6.63
2018-09-17T06:45:44.983Z,6.67
2018-09-17T06:48:12.424Z,6.50
2018-09-17T06:50:40.130Z,6.17
2018-09-17T06:53:07.582Z,6.50
2018-09-17T06:55:35.035Z,6.73
2018-09-17T06:58:02.498Z,6.30
2018-09-17T07:00:30.730Z,6.50
2018-09-17T07:02:58.158Z,6.10
2018-09-17T07:05:25.846Z,6.10
2018-09-17T07:07:53.277Z,5.50
2018-09-17T07:10:20.863Z,6.00
2018-09-17T07:12:48.397Z,6.27
2018-09-17T07:15:16.026Z,6.20
2018-09-17T07:17:43.456Z,6.43
2018-09-17T07:20:10.883Z,6.67
2018-09-17T07:22:38.373Z,5.90
2018-09-17T07:25:05.960Z,5.77
2018-09-17T07:27:33.497Z,6.30
2018-09-17T07:30:00.942Z,6.87
2018-09-17T07:32:28.473Z,5.27
2018-09-17T07:34:55.940Z,5.53
2018-09-17T07:37:26.496Z,5.40
2018-09-17T07:39:54.028Z,5.20
2018-09-17T07:42:21.558Z,6.37
2018-09-17T07:44:49.145Z,6.43
2018-09-17T07:47:16.647Z,6.43
2018-09-17T07:49:44.121Z,7.20
2018-09-17T07:52:12.259Z,7.03
2018-09-17T07:54:39.682Z,7.33
2018-09-17T07:57:07.149Z,7.00
2018-09-17T07:59:34.706Z,9.23
2018-09-17T08:02:02.173Z,8.93
2018-09-17T08:04:30.032Z,9.73
2018-09-17T08:06:57.499Z,8.10
2018-09-17T08:09:24.952Z,9.53
2018-09-17T08:11:52.501Z,8.53
2018-09-17T08:14:20.019Z,8.30
2018-09-17T08:16:47.439Z,8.50
2018-09-17T08:19:15.152Z,9.13
2018-09-17T08:21:42.716Z,8.30
2018-09-17T08:24:10.149Z,8.00
2018-09-17T08:26:37.616Z,7.83
2018-09-17T08:29:05.338Z,7.33
2018-09-17T08:31:32.817Z,7.30
2018-09-17T08:34:00.273Z,6.43
2018-09-17T08:36:27.741Z,7.60
2018-09-17T08:38:55.398Z,6.63
2018-09-17T08:41:22.876Z,8.43
2018-09-17T08:43:50.325Z,7.83
2018-09-17T08:46:17.918Z,7.53
2018-09-17T08:48:45.362Z,8.43
2018-09-17T08:51:12.940Z,7.40
2018-09-17T08:53:40.386Z,8.10
2018-09-17T08:56:13.548Z,7.50
2018-09-17T08:58:46.564Z,7.47
2018-09-17T09:01:19.820Z,6.70
2018-09-17T09:03:53.024Z,6.57
2018-09-17T09:06:25.057Z,6.17
2018-09-17T09:08:52.490Z,5.83
2018-09-17T09:11:26.431Z,7.00
2018-09-17T09:13:55.812Z,6.20
2018-09-17T09:16:23.995Z,6.20
2018-09-17T09:18:51.514Z,6.67
2018-09-17T09:21:18.973Z,5.60
2018-09-17T09:23:46.428Z,5.30
2018-09-17T09:26:13.944Z,5.90
2018-09-17T09:28:41.350Z,6.17
2018-09-17T09:31:08.810Z,5.10
2018-09-17T09:33:36.268Z,4.90
2018-09-17T09:36:03.815Z,5.90
2018-09-17T09:38:31.252Z,5.70
2018-09-17T09:40:58.726Z,6.63
2018-09-17T09:43:26.289Z,5.63
2018-09-17T09:45:53.740Z,6.73
2018-09-17T09:48:21.169Z,6.07
2018-09-17T09:50:48.629Z,6.00
2018-09-17T09:53:16.092Z,4.70
2018-09-17T09:55:43.541Z,6.87
2018-09-17T09:58:10.971Z,4.30
2018-09-17T10:00:44.276Z,5.90
2018-09-17T10:03:15.668Z,6.83
2018-09-17T10:05:43.138Z,5.00
2018-09-17T10:08:10.625Z,3.90
2018-09-17T10:10:43.707Z,4.27
2018-09-17T10:13:16.793Z,5.50
2018-09-17T10:15:49.816Z,4.20
2018-09-17T10:18:23.157Z,5.40
2018-09-17T10:20:50.651Z,4.20
2018-09-17T10:23:18.089Z,3.77
2018-09-17T10:25:45.611Z,4.50
2018-09-17T10:28:13.089Z,4.53
2018-09-17T10:30:40.559Z,4.63
2018-09-17T10:33:08.022Z,3.77
2018-09-17T10:35:35.445Z,4.40
2018-09-17T10:38:02.909Z,4.83
2018-09-17T10:40:30.336Z,4.83
2018-09-17T10:42:57.800Z,3.67
2018-09-17T10:45:25.235Z,2.90
2018-09-17T10:47:52.751Z,3.37
2018-09-17T10:50:20.176Z,5.00
2018-09-17T10:52:47.737Z,3.20
2018-09-17T10:55:15.233Z,4.53
2018-09-17T10:57:42.689Z,3.83
2018-09-17T11:00:10.312Z,3.77
2018-09-17T11:02:37.770Z,2.50
2018-09-17T11:05:05.269Z,4.03
2018-09-17T11:07:32.724Z,3.47
2018-09-17T11:10:00.241Z,6.37
2018-09-17T11:12:27.719Z,4.80
2018-09-17T11:14:55.169Z,4.00
2018-09-17T11:17:22.760Z,4.67
2018-09-17T11:19:50.361Z,2.63
2018-09-17T11:22:17.891Z,2.87
2018-09-17T11:24:45.321Z,4.77
2018-09-17T11:27:12.847Z,3.33
2018-09-17T11:29:40.265Z,3.33
2018-09-17T11:32:07.732Z,2.97
2018-09-17T11:34:35.160Z,3.67
2018-09-17T11:37:02.585Z,5.27
2018-09-17T11:39:30.038Z,3.27
2018-09-17T11:41:57.464Z,3.60
2018-09-17T11:44:24.947Z,4.50
2018-09-17T11:46:52.404Z,2.93
2018-09-17T11:49:19.867Z,2.33
2018-09-17T11:51:47.285Z,6.33
2018-09-17T11:54:14.739Z,2.40
2018-09-17T11:56:42.161Z,2.80
2018-09-17T11:59:09.631Z,3.77
2018-09-17T12:01:42.687Z,5.20
2018-09-17T12:04:13.348Z,3.00
2018-09-17T12:06:46.464Z,3.47
2018-09-17T12:09:13.969Z,4.73
2018-09-17T12:11:41.705Z,3.37
2018-09-17T12:14:09.349Z,5.60
2018-09-17T12:16:36.767Z,4.77
2018-09-17T12:19:04.428Z,3.20
2018-09-17T12:21:32.050Z,5.13
2018-09-17T12:23:59.766Z,2.80
2018-09-17T12:26:27.266Z,4.30
2018-09-17T12:28:54.751Z,2.63
2018-09-17T12:31:22.384Z,2.90
2018-09-17T12:33:49.965Z,2.70
2018-09-17T12:36:17.404Z,2.73
2018-09-17T12:38:44.989Z,2.90
2018-09-17T12:41:12.424Z,2.70
2018-09-17T12:43:39.898Z,3.90
2018-09-17T12:46:07.348Z,2.60
2018-09-17T12:48:34.795Z,3.77
2018-09-17T12:51:02.231Z,2.93
2018-09-17T12:53:29.815Z,2.83
2018-09-17T12:55:57.363Z,2.90
2018-09-17T12:58:24.794Z,5.00
2018-09-17T13:00:52.297Z,4.27
2018-09-17T13:03:19.762Z,3.80
2018-09-17T13:05:47.225Z,4.13
2018-09-17T13:08:14.649Z,3.70
2018-09-17T13:10:42.113Z,3.00
2018-09-17T13:13:09.534Z,2.63
2018-09-17T13:15:42.686Z,4.47
2018-09-17T13:18:10.105Z,2.83
2018-09-17T13:20:37.665Z,3.17
2018-09-17T13:23:05.143Z,2.73
2018-09-17T13:25:32.597Z,2.80
2018-09-17T13:28:00.137Z,2.53
2018-09-17T13:30:27.585Z,2.60
2018-09-17T13:32:55.008Z,3.73
2018-09-17T13:35:22.465Z,3.37
2018-09-17T13:37:49.896Z,2.90
2018-09-17T13:40:17.362Z,3.23
2018-09-17T13:42:44.788Z,3.23
2018-09-17T13:45:12.322Z,3.70
2018-09-17T13:47:39.808Z,3.30
2018-09-17T13:50:07.309Z,2.50
2018-09-17T13:52:34.762Z,2.73
2018-09-17T13:55:02.256Z,2.50
2018-09-17T13:57:30.438Z,3.00
2018-09-17T13:59:58.140Z,3.33
2018-09-17T14:02:25.579Z,2.60
2018-09-17T14:04:53.041Z,3.00
2018-09-17T14:07:20.646Z,2.73
2018-09-17T14:09:48.185Z,2.87
2018-09-17T14:12:15.636Z,3.00
2018-09-17T14:14:43.078Z,2.60
2018-09-17T14:17:10.594Z,3.17
2018-09-17T14:19:38.057Z,4.03
2018-09-17T14:22:05.537Z,3.10
2018-09-17T14:24:33.021Z,2.90
2018-09-17T14:27:00.537Z,2.60
2018-09-17T14:29:28.045Z,3.30
2018-09-17T14:32:01.170Z,2.60
2018-09-17T14:34:28.623Z,2.40
2018-09-17T14:36:56.193Z,2.50
2018-09-17T14:39:23.620Z,3.33
2018-09-17T14:41:52.725Z,2.93
2018-09-17T14:44:20.200Z,2.63
2018-09-17T14:46:47.643Z,2.70
2018-09-17T14:49:15.164Z,3.60
2018-09-17T14:51:42.683Z,2.63
2018-09-17T14:54:10.150Z,2.80
2018-09-17T14:56:37.573Z,3.10
2018-09-17T14:59:05.116Z,3.03
2018-09-17T15:01:32.568Z,2.77
2018-09-17T15:04:00.078Z,2.47
2018-09-17T15:06:27.556Z,3.77
2018-09-17T15:08:55.012Z,2.33
2018-09-17T15:11:22.569Z,2.20
2018-09-17T15:13:50.145Z,2.40
2018-09-17T15:16:17.660Z,3.77
2018-09-17T15:18:45.097Z,3.17
2018-09-17T15:21:12.532Z,2.90
2018-09-17T15:23:40.136Z,2.40
2018-09-17T15:26:07.687Z,2.17
2018-09-17T15:28:35.149Z,2.10
2018-09-17T15:31:02.707Z,2.37
2018-09-17T15:33:30.100Z,2.20
2018-09-17T15:35:57.608Z,2.13
2018-09-17T15:38:25.159Z,2.13
2018-09-17T15:40:52.611Z,3.03
2018-09-17T15:43:19.989Z,2.60
2018-09-17T15:45:47.538Z,2.90
2018-09-17T15:48:15.033Z,3.10
2018-09-17T15:50:42.561Z,2.20
2018-09-17T15:53:09.989Z,3.50
2018-09-17T15:55:37.478Z,2.70
2018-09-17T15:58:05.412Z,3.17
2018-09-17T16:00:33.007Z,2.30
2018-09-17T16:03:00.575Z,3.23
2018-09-17T16:05:27.961Z,2.43
2018-09-17T16:07:55.436Z,2.60
2018-09-17T16:10:22.900Z,2.00
2018-09-17T16:12:50.371Z,2.60
2018-09-17T16:15:17.809Z,3.57
2018-09-17T16:17:45.237Z,2.57
2018-09-17T16:20:12.757Z,1.90
2018-09-17T16:22:40.293Z,3.00
2018-09-17T16:25:07.823Z,2.83
2018-09-17T16:27:35.426Z,2.50
2018-09-17T16:30:03.128Z,3.43
2018-09-17T16:32:30.568Z,3.73
2018-09-17T16:34:58.058Z,2.30
2018-09-17T16:37:25.495Z,2.13
2018-09-17T16:39:52.981Z,2.87
2018-09-17T16:42:20.516Z,3.70
2018-09-17T16:44:48.126Z,2.47
2018-09-17T16:47:15.585Z,3.43
2018-09-17T16:49:43.057Z,1.90
2018-09-17T16:52:10.609Z,2.43
2018-09-17T16:54:38.037Z,3.07
2018-09-17T16:57:05.504Z,2.40
2018-09-17T16:59:33.079Z,2.30
2018-09-17T17:02:00.492Z,2.37
2018-09-17T17:04:27.975Z,2.10
2018-09-17T17:06:55.448Z,2.53
2018-09-17T17:09:22.923Z,4.00
2018-09-17T17:11:50.377Z,3.30
2018-09-17T17:14:17.921Z,2.63
2018-09-17T17:16:45.833Z,5.10
2018-09-17T17:19:13.412Z,3.90
2018-09-17T17:21:40.811Z,3.03
2018-09-17T17:24:08.431Z,3.20
2018-09-17T17:26:35.861Z,3.10
2018-09-17T17:29:03.521Z,4.00
2018-09-17T17:31:31.025Z,2.90
2018-09-17T17:33:58.541Z,3.30
2018-09-17T17:36:26.026Z,4.53
2018-09-17T17:38:53.453Z,4.20
2018-09-17T17:41:20.928Z,3.10
2018-09-17T17:43:48.424Z,3.40
2018-09-17T17:46:16.094Z,3.63
2018-09-17T17:48:43.361Z,5.27
2018-09-17T17:51:10.830Z,6.10
2018-09-17T17:53:38.356Z,3.80
2018-09-17T17:56:05.830Z,3.63
2018-09-17T17:58:33.516Z,5.23
2018-09-17T18:01:01.332Z,3.80
2018-09-17T18:03:28.793Z,3.90
2018-09-17T18:05:56.260Z,4.60
2018-09-17T18:08:23.756Z,3.67
2018-09-17T18:10:51.204Z,3.67
2018-09-17T18:13:18.678Z,4.00
2018-09-17T18:15:46.170Z,3.20
2018-09-17T18:18:13.601Z,3.83
2018-09-17T18:20:41.085Z,4.67
2018-09-17T18:23:08.652Z,3.40
2018-09-17T18:25:36.094Z,4.00
2018-09-17T18:28:03.572Z,5.37
2018-09-17T18:30:31.017Z,3.67
2018-09-17T18:32:59.340Z,3.80
2018-09-17T18:35:26.812Z,4.33
2018-09-17T18:37:55.142Z,4.27
2018-09-17T18:40:22.633Z,3.67
2018-09-17T18:42:50.092Z,3.67
2018-09-17T18:45:17.651Z,4.13
2018-09-17T18:47:45.106Z,4.43
2018-09-17T18:50:12.680Z,3.87
2018-09-17T18:52:40.570Z,4.53
2018-09-17T18:55:08.151Z,3.87
2018-09-17T18:57:35.742Z,4.20
2018-09-17T19:00:03.306Z,3.57
2018-09-17T19:02:30.766Z,4.67
2018-09-17T19:04:58.289Z,6.50
2018-09-17T19:07:25.743Z,4.83
2018-09-17T19:09:53.299Z,4.00
2018-09-17T19:12:20.991Z,4.90
2018-09-17T19:14:54.204Z,3.43
2018-09-17T19:17:27.259Z,4.30
2018-09-17T19:19:54.849Z,5.00
2018-09-17T19:22:28.014Z,4.53
2018-09-17T19:24:55.448Z,4.30
2018-09-17T19:27:28.375Z,4.30
2018-09-17T19:29:55.871Z,4.20
2018-09-17T19:32:23.404Z,4.83
2018-09-17T19:34:50.857Z,4.50
2018-09-17T19:37:23.998Z,4.50
2018-09-17T19:39:57.451Z,4.53
2018-09-17T19:42:24.943Z,4.10
2018-09-17T19:44:58.113Z,8.23
2018-09-17T19:47:25.566Z,4.47
2018-09-17T19:49:53.387Z,4.90
2018-09-17T19:52:23.043Z,4.40
2018-09-17T19:54:50.605Z,4.60
2018-09-17T19:57:23.858Z,8.03
2018-09-17T19:59:58.580Z,4.77
2018-09-17T20:02:26.029Z,5.20
2018-09-17T20:04:59.131Z,7.47
2018-09-17T20:07:26.559Z,6.70
2018-09-17T20:09:54.009Z,4.53
2018-09-17T20:12:21.691Z,4.60
2018-09-17T20:14:49.157Z,4.90
2018-09-17T20:17:16.645Z,4.93
2018-09-17T20:19:44.434Z,4.53
2018-09-17T20:22:12.105Z,5.93
2018-09-17T20:24:40.287Z,4.33
2018-09-17T20:27:08.076Z,5.43
2018-09-17T20:29:35.536Z,4.93
2018-09-17T20:32:03.039Z,5.33
2018-09-17T20:34:30.473Z,6.17
2018-09-17T20:36:58.076Z,4.70
2018-09-17T20:39:25.635Z,4.87
2018-09-17T20:41:53.149Z,4.00
2018-09-17T20:44:20.584Z,4.90
2018-09-17T20:46:48.032Z,4.90
2018-09-17T20:49:15.570Z,4.50
2018-09-17T20:51:42.977Z,4.83
2018-09-17T20:54:10.437Z,4.67
2018-09-17T20:56:37.900Z,4.90
2018-09-17T20:59:05.574Z,5.00
2018-09-17T21:01:33.245Z,4.97
2018-09-17T21:04:00.618Z,9.50
2018-09-17T21:06:28.168Z,4.13
2018-09-17T21:08:55.731Z,4.80
2018-09-17T21:11:23.197Z,4.27
2018-09-17T21:13:51.153Z,4.77
2018-09-17T21:16:19.055Z,4.60
2018-09-17T21:18:46.666Z,4.53
2018-09-17T21:21:14.089Z,4.80
2018-09-17T21:23:41.576Z,4.53
2018-09-17T21:26:09.157Z,5.20
2018-09-17T21:28:36.853Z,4.23
2018-09-17T21:31:04.360Z,4.77
2018-09-17T21:33:31.807Z,4.80
2018-09-17T21:35:59.294Z,4.87
2018-09-17T21:38:26.838Z,5.20
2018-09-17T21:40:54.279Z,5.03
2018-09-17T21:43:21.826Z,5.13
2018-09-17T21:45:49.222Z,4.93
2018-09-17T21:48:16.706Z,5.00
2018-09-17T21:50:44.126Z,4.77
2018-09-17T21:53:11.653Z,5.23
2018-09-17T21:55:39.084Z,4.57
2018-09-17T21:58:06.601Z,4.33
2018-09-17T22:00:39.834Z,5.20
2018-09-17T22:03:07.301Z,5.70
2018-09-17T22:05:34.772Z,5.13
2018-09-17T22:08:02.384Z,5.00
2018-09-17T22:10:29.821Z,6.80
2018-09-17T22:12:57.344Z,5.10
2018-09-17T22:15:25.049Z,5.47
2018-09-17T22:17:52.512Z,5.10
2018-09-17T22:20:19.951Z,4.90
2018-09-17T22:22:47.457Z,5.00
2018-09-17T22:25:14.895Z,5.77
2018-09-17T22:27:42.348Z,6.30
2018-09-17T22:30:09.882Z,6.00
2018-09-17T22:32:37.337Z,5.50
2018-09-17T22:35:04.833Z,4.60
2018-09-17T22:37:32.357Z,6.17
2018-09-17T22:39:59.806Z,5.33
2018-09-17T22:42:27.397Z,5.70
2018-09-17T22:44:54.855Z,5.00
2018-09-17T22:47:22.333Z,5.00
2018-09-17T22:49:49.789Z,5.60
2018-09-17T22:52:17.687Z,6.10
2018-09-17T22:54:45.154Z,5.87
2018-09-17T22:57:12.589Z,5.00
2018-09-17T22:59:40.226Z,5.73
2018-09-17T23:02:07.691Z,5.43
2018-09-17T23:04:35.170Z,7.10
2018-09-17T23:07:04.589Z,5.33
2018-09-17T23:09:32.061Z,6.87
2018-09-17T23:11:59.554Z,7.80
2018-09-17T23:14:27.010Z,5.43
2018-09-17T23:16:54.504Z,5.37
2018-09-17T23:19:22.328Z,5.97
2018-09-17T23:21:49.788Z,5.27
2018-09-17T23:24:17.257Z,4.90
2018-09-17T23:26:44.691Z,5.13
2018-09-17T23:29:12.174Z,8.10
2018-09-17T23:31:39.604Z,5.53
2018-09-17T23:34:07.139Z,6.10
2018-09-17T23:36:34.565Z,5.27
2018-09-17T23:39:02.461Z,5.60
2018-09-17T23:41:29.898Z,5.73
2018-09-17T23:43:57.339Z,5.67
2018-09-17T23:46:24.781Z,6.07
2018-09-17T23:48:52.243Z,5.43
2018-09-17T23:51:19.696Z,5.27
2018-09-17T23:53:47.203Z,5.30
2018-09-17T23:56:14.657Z,5.10
2018-09-17T23:58:42.114Z,5.57
